createdAt,value
2023-04-04T00:03:33.890Z,98052.66
2023-04-04T00:07:40.941Z,98067.41
2023-04-04T00:11:51.494Z,98062.94
2023-04-04T00:16:27.700Z,98054.59
2023-04-04T00:20:31.261Z,98060.19
2023-04-04T00:24:36.133Z,98068.91
2023-04-04T00:28:44.958Z,98070.44
2023-04-04T00:32:48.106Z,98062.44
2023-04-04T00:36:50.772Z,98052.81
2023-04-04T00:40:55.248Z,98056.69
2023-04-04T00:44:57.799Z,98067.50
2023-04-04T00:49:03.173Z,98070.78
2023-04-04T00:53:09.287Z,98070.28
2023-04-04T00:57:13.717Z,98047.00
2023-04-04T01:01:17.154Z,98066.22
2023-04-04T01:05:31.165Z,98064.59
2023-04-04T01:09:47.180Z,98062.00
2023-04-04T01:13:56.098Z,98073.44
2023-04-04T01:18:06.066Z,98058.81
2023-04-04T01:22:15.101Z,98064.34
2023-04-04T01:26:22.471Z,98060.72
2023-04-04T01:30:36.521Z,98071.59
2023-04-04T01:35:22.373Z,98062.88
2023-04-04T01:39:41.239Z,98060.31
2023-04-04T01:43:49.313Z,98075.44
2023-04-04T01:47:53.838Z,98049.91
2023-04-04T01:52:01.111Z,98062.84
2023-04-04T01:56:06.423Z,98062.13
2023-04-04T02:00:11.502Z,98064.59
2023-04-04T02:04:21.945Z,98054.28
2023-04-04T02:08:36.506Z,98050.59
2023-04-04T02:12:42.629Z,98057.72
2023-04-04T02:16:44.953Z,98059.94
2023-04-04T02:20:47.675Z,98056.34
2023-04-04T02:24:56.892Z,98058.69
2023-04-04T02:28:59.683Z,98046.97
2023-04-04T02:33:02.584Z,98054.34
2023-04-04T02:37:05.318Z,98059.16
2023-04-04T02:41:08.218Z,98062.41
2023-04-04T02:45:15.929Z,98067.75
2023-04-04T02:49:26.354Z,98059.75
2023-04-04T02:53:29.736Z,98061.69
2023-04-04T02:57:43.203Z,98062.28
2023-04-04T03:01:53.544Z,98071.44
2023-04-04T03:05:59.500Z,98062.16
2023-04-04T03:10:08.760Z,98065.78
2023-04-04T03:14:11.930Z,98063.94
2023-04-04T03:18:18.229Z,98078.31
2023-04-04T03:22:24.615Z,98071.19
2023-04-04T03:26:33.977Z,98067.66
2023-04-04T03:30:41.344Z,98072.81
2023-04-04T03:34:44.957Z,98080.94
2023-04-04T03:38:50.562Z,98084.06
2023-04-04T03:42:55.047Z,98105.59
2023-04-04T03:47:06.204Z,98089.44
2023-04-04T03:51:13.596Z,98093.34
2023-04-04T03:55:17.574Z,98085.69
2023-04-04T03:59:21.676Z,98095.22
2023-04-04T04:03:35.043Z,98093.84
2023-04-04T04:07:38.957Z,98089.25
2023-04-04T04:11:42.880Z,98084.69
2023-04-04T04:15:54.134Z,98077.22
2023-04-04T04:19:58.640Z,98091.91
2023-04-04T04:24:05.769Z,98094.66
2023-04-04T04:28:18.553Z,98097.06
2023-04-04T04:32:24.015Z,98106.91
2023-04-04T04:36:31.141Z,98103.44
2023-04-04T04:41:07.090Z,98109.66
2023-04-04T04:45:17.063Z,98109.56
2023-04-04T04:49:25.434Z,98111.13
2023-04-04T04:53:28.563Z,98123.19
2023-04-04T04:57:36.672Z,98116.88
2023-04-04T05:01:51.962Z,98122.16
2023-04-04T05:05:57.520Z,98116.53
2023-04-04T05:10:02.984Z,98115.28
2023-04-04T05:18:53.177Z,98111.00
2023-04-04T05:22:57.101Z,98120.50
2023-04-04T05:27:12.913Z,98116.28
2023-04-04T05:31:23.170Z,98118.47
2023-04-04T05:35:29.530Z,98114.88
2023-04-04T05:39:37.956Z,98125.06
2023-04-04T05:43:44.774Z,98127.81
2023-04-04T05:47:56.556Z,98131.03
2023-04-04T05:52:01.977Z,98140.41
2023-04-04T05:56:07.517Z,98137.97
2023-04-04T06:00:14.996Z,98135.50
2023-04-04T06:04:18.255Z,98136.75
2023-04-04T06:08:22.255Z,98147.28
2023-04-04T06:12:30.515Z,98143.44
2023-04-04T06:16:34.633Z,98157.44
2023-04-04T06:20:37.056Z,98150.91
2023-04-04T06:24:39.526Z,98148.75
2023-04-04T06:28:55.103Z,98155.44
2023-04-04T06:33:05.607Z,98150.44
2023-04-04T06:37:17.759Z,98164.97
2023-04-04T06:41:32.298Z,98175.06
2023-04-04T06:45:36.036Z,98160.47
2023-04-04T06:49:38.819Z,98153.03
2023-04-04T06:53:43.281Z,98156.56
2023-04-04T06:57:49.667Z,98161.72
2023-04-04T07:01:58.426Z,98170.47
2023-04-04T07:06:07.472Z,98162.94
2023-04-04T07:10:11.222Z,98171.84
2023-04-04T07:14:18.192Z,98165.22
2023-04-04T07:18:23.532Z,98164.19
2023-04-04T07:22:25.999Z,98176.16
2023-04-04T07:26:29.227Z,98168.72
2023-04-04T07:30:33.435Z,98157.44
2023-04-04T07:34:38.290Z,98183.91
2023-04-04T07:38:43.142Z,98172.97
2023-04-04T07:42:51.569Z,98182.38
2023-04-04T07:47:08.478Z,98184.06
2023-04-04T07:51:14.402Z,98187.22
2023-04-04T07:55:17.149Z,98200.63
2023-04-04T07:59:21.627Z,98202.75
2023-04-04T08:03:28.557Z,98210.34
2023-04-04T08:07:32.022Z,98231.03
2023-04-04T08:11:36.997Z,98211.31
2023-04-04T08:15:42.266Z,98222.56
2023-04-04T08:19:47.007Z,98233.44
2023-04-04T08:23:59.057Z,98220.97
2023-04-04T08:28:07.186Z,98229.50
2023-04-04T08:32:09.971Z,98233.38
2023-04-04T08:36:14.885Z,98234.84
2023-04-04T08:40:18.754Z,98243.31
2023-04-04T08:44:27.807Z,98261.44
2023-04-04T08:48:31.686Z,98253.03
2023-04-04T08:52:42.968Z,98251.06
2023-04-04T08:56:48.121Z,98259.09
2023-04-04T09:00:56.225Z,98252.09
2023-04-04T09:05:06.657Z,98260.97
2023-04-04T09:09:15.263Z,98263.47
2023-04-04T09:13:24.163Z,98251.50
2023-04-04T09:17:28.969Z,98256.16
2023-04-04T09:21:36.441Z,98268.72
2023-04-04T09:30:05.341Z,98239.84
2023-04-04T09:34:19.127Z,98241.09
2023-04-04T09:38:29.191Z,98241.00
2023-04-04T09:42:33.344Z,98250.53
2023-04-04T09:46:37.839Z,98254.72
2023-04-04T09:50:48.314Z,98279.97
2023-04-04T09:55:01.421Z,98258.03
2023-04-04T09:59:08.422Z,98287.75
2023-04-04T10:03:13.637Z,98283.97
2023-04-04T10:07:17.378Z,98266.75
2023-04-04T10:11:32.688Z,98270.72
2023-04-04T10:15:40.110Z,98279.41
2023-04-04T10:19:56.698Z,98269.69
2023-04-04T10:24:03.762Z,98273.81
2023-04-04T10:28:06.182Z,98264.28
2023-04-04T10:32:23.540Z,98287.97
2023-04-04T10:36:33.074Z,98281.03
2023-04-04T10:40:40.235Z,98282.91
2023-04-04T10:44:48.276Z,98277.00
2023-04-04T10:48:55.340Z,98283.66
2023-04-04T10:53:01.607Z,98278.81
2023-04-04T10:57:06.480Z,98298.41
2023-04-04T11:01:14.189Z,98282.41
2023-04-04T11:05:27.271Z,98282.78
2023-04-04T11:10:17.405Z,98301.97
2023-04-04T11:14:36.757Z,98290.59
2023-04-04T11:18:46.709Z,98275.22
2023-04-04T11:23:04.405Z,98268.31
2023-04-04T11:27:08.457Z,98279.09
2023-04-04T11:31:23.978Z,98275.81
2023-04-04T11:35:29.589Z,98289.56
2023-04-04T11:39:34.948Z,98284.47
2023-04-04T11:43:45.870Z,98281.16
2023-04-04T11:47:49.729Z,98274.38
2023-04-04T11:51:54.528Z,98275.16
2023-04-04T11:56:03.310Z,98272.84
2023-04-04T12:00:09.348Z,98275.22
2023-04-04T12:04:18.639Z,98269.97
2023-04-04T12:08:25.496Z,98264.50
2023-04-04T12:12:29.187Z,98262.00
2023-04-04T12:16:36.097Z,98265.75
2023-04-04T12:20:47.953Z,98264.06
2023-04-04T12:24:50.488Z,98273.47
2023-04-04T12:29:00.130Z,98241.03
2023-04-04T12:33:05.397Z,98244.03
2023-04-04T12:37:18.804Z,98254.31
2023-04-04T12:41:23.879Z,98243.09
2023-04-04T12:45:28.206Z,98244.69
2023-04-04T12:49:39.575Z,98224.50
2023-04-04T12:53:57.170Z,98233.03
2023-04-04T12:58:02.237Z,98242.75
2023-04-04T13:02:12.802Z,98216.19
2023-04-04T13:06:20.170Z,98218.22
2023-04-04T13:10:35.466Z,98207.97
2023-04-04T13:14:58.240Z,98190.84
2023-04-04T13:19:05.609Z,98189.44
2023-04-04T13:23:08.495Z,98192.47
2023-04-04T13:27:12.150Z,98179.97
2023-04-04T13:31:16.438Z,98172.06
2023-04-04T13:35:19.556Z,98173.13
2023-04-04T13:39:25.362Z,98171.78
2023-04-04T13:43:28.111Z,98166.56
2023-04-04T13:47:33.302Z,98154.41
2023-04-04T13:51:37.649Z,98159.28
2023-04-04T13:55:52.016Z,98142.56
2023-04-04T14:00:05.860Z,98133.25
2023-04-04T14:04:20.661Z,98122.34
2023-04-04T14:08:26.321Z,98133.81
2023-04-04T14:12:29.062Z,98134.06
2023-04-04T14:16:32.043Z,98137.78
2023-04-04T14:20:37.702Z,98131.91
2023-04-04T14:24:41.552Z,98118.66
2023-04-04T14:28:44.612Z,98125.53
2023-04-04T14:32:48.855Z,98127.94
2023-04-04T14:36:51.327Z,98123.66
2023-04-04T14:40:55.288Z,98123.41
2023-04-04T14:44:58.678Z,98117.53
2023-04-04T14:49:04.294Z,98118.53
2023-04-04T14:53:09.543Z,98127.06
2023-04-04T14:57:15.402Z,98128.09
2023-04-04T15:01:21.553Z,98125.22
2023-04-04T15:05:25.689Z,98124.41
2023-04-04T15:09:34.887Z,98131.63
2023-04-04T15:13:40.679Z,98153.72
2023-04-04T15:17:46.432Z,98130.84
2023-04-04T15:21:51.493Z,98152.13
2023-04-04T15:25:58.696Z,98154.50
2023-04-04T15:30:04.208Z,98152.63
2023-04-04T15:34:07.583Z,98154.78
2023-04-04T15:38:13.614Z,98158.00
2023-04-04T15:42:20.840Z,98165.16
2023-04-04T15:46:23.471Z,98177.81
2023-04-04T15:50:26.274Z,98170.13
2023-04-04T15:54:31.736Z,98172.84
2023-04-04T15:58:36.986Z,98167.53
2023-04-04T16:02:39.840Z,98158.25
2023-04-04T16:06:44.222Z,98169.25
2023-04-04T16:10:47.320Z,98171.69
2023-04-04T16:14:50.186Z,98170.94
2023-04-04T16:18:54.375Z,98174.84
2023-04-04T16:22:56.897Z,98186.41
2023-04-04T16:27:02.436Z,98195.22
2023-04-04T16:31:06.835Z,98185.50
2023-04-04T16:35:10.320Z,98192.53
2023-04-04T16:39:15.421Z,98192.97
2023-04-04T16:43:21.375Z,98187.66
2023-04-04T16:47:26.129Z,98192.25
2023-04-04T16:51:30.878Z,98208.22
2023-04-04T16:55:35.131Z,98193.56
2023-04-04T16:59:37.933Z,98215.13
2023-04-04T17:03:43.083Z,98213.03
2023-04-04T17:07:45.707Z,98225.09
2023-04-04T17:11:50.940Z,98236.19
2023-04-04T17:15:54.585Z,98221.88
2023-04-04T17:19:58.434Z,98241.41
2023-04-04T17:24:04.740Z,98237.50
2023-04-04T17:28:07.622Z,98229.72
2023-04-04T17:32:10.572Z,98232.47
2023-04-04T17:36:17.575Z,98246.38
2023-04-04T17:40:22.469Z,98239.78
2023-04-04T17:44:24.962Z,98246.19
2023-04-04T17:48:32.331Z,98247.31
2023-04-04T17:52:35.061Z,98250.81
2023-04-04T17:56:38.485Z,98287.06
2023-04-04T18:00:42.780Z,98270.38
2023-04-04T18:04:47.536Z,98277.53
2023-04-04T18:08:52.248Z,98285.09
2023-04-04T18:12:55.630Z,98278.59
2023-04-04T18:16:58.698Z,98278.75
2023-04-04T18:21:02.098Z,98279.81
2023-04-04T18:25:04.755Z,98284.06
2023-04-04T18:29:08.897Z,98291.53
2023-04-04T18:33:12.276Z,98301.59
2023-04-04T18:37:15.747Z,98309.84
2023-04-04T18:41:18.252Z,98317.75
2023-04-04T18:45:29.924Z,98314.22
2023-04-04T18:49:37.198Z,98312.03
2023-04-04T18:53:45.013Z,98315.81
2023-04-04T18:57:50.860Z,98321.44
2023-04-04T19:01:57.214Z,98322.69
2023-04-04T19:06:08.058Z,98334.13
2023-04-04T19:10:14.351Z,98338.19
2023-04-04T19:14:17.182Z,98338.72
2023-04-04T19:18:31.676Z,98339.16
2023-04-04T19:22:37.662Z,98348.91
2023-04-04T19:26:55.325Z,98349.69
2023-04-04T19:31:02.580Z,98345.69
2023-04-04T19:39:46.883Z,98346.03
2023-04-04T19:43:50.923Z,98351.78
2023-04-04T19:47:54.832Z,98343.28
2023-04-04T19:51:59.740Z,98342.84
2023-04-04T19:56:08.707Z,98339.97
2023-04-04T20:00:16.637Z,98333.09
2023-04-04T20:04:20.295Z,98350.97
2023-04-04T20:08:24.110Z,98346.03
2023-04-04T20:12:33.560Z,98338.59
2023-04-04T20:16:39.062Z,98344.09
2023-04-04T20:21:12.110Z,98352.47
2023-04-04T20:25:40.830Z,98357.63
2023-04-04T20:34:46.783Z,98371.03
2023-04-04T20:38:52.738Z,98370.00
2023-04-04T20:43:22.191Z,98370.06
2023-04-04T20:47:46.934Z,98373.25
2023-04-04T20:51:51.886Z,98366.38
2023-04-04T20:56:02.246Z,98374.16
2023-04-04T21:00:25.565Z,98368.66
2023-04-04T21:04:37.760Z,98373.34
2023-04-04T21:08:53.568Z,98368.00
2023-04-04T21:13:13.154Z,98379.19
2023-04-04T21:17:29.957Z,98373.50
2023-04-04T21:21:40.577Z,98370.88
2023-04-04T21:25:46.348Z,98371.53
2023-04-04T21:29:54.913Z,98370.50
2023-04-04T21:34:18.845Z,98361.13
2023-04-04T21:38:34.401Z,98362.69
2023-04-04T21:42:38.948Z,98370.16
2023-04-04T21:46:42.062Z,98362.03
2023-04-04T21:50:45.101Z,98359.72
2023-04-04T21:54:47.619Z,98358.13
2023-04-04T21:58:50.091Z,98368.91
2023-04-04T22:02:52.506Z,98373.75
2023-04-04T22:06:55.187Z,98375.44
2023-04-04T22:11:02.034Z,98373.84
2023-04-04T22:15:05.230Z,98374.09
2023-04-04T22:19:07.821Z,98370.88
2023-04-04T22:23:11.542Z,98360.31
2023-04-04T22:27:14.883Z,98364.66
2023-04-04T22:31:17.230Z,98366.50
2023-04-04T22:35:26.521Z,98368.56
2023-04-04T22:39:30.927Z,98368.56
2023-04-04T22:43:39.535Z,98365.13
2023-04-04T22:47:47.649Z,98370.31
2023-04-04T22:51:49.870Z,98376.81
2023-04-04T22:55:54.257Z,98357.00
2023-04-04T22:59:59.913Z,98367.88
2023-04-04T23:04:11.526Z,98353.69
2023-04-04T23:08:18.816Z,98347.94
2023-04-04T23:12:25.992Z,98345.63
2023-04-04T23:16:36.835Z,98345.31
2023-04-04T23:20:43.022Z,98352.41
2023-04-04T23:24:46.177Z,98354.81
2023-04-04T23:28:51.512Z,98360.31
2023-04-04T23:32:56.353Z,98353.69
2023-04-04T23:37:07.599Z,98348.41
2023-04-04T23:41:11.462Z,98347.13
2023-04-04T23:45:14.412Z,98357.94
2023-04-04T23:49:17.196Z,98369.84
2023-04-04T23:53:19.635Z,98357.47
2023-04-04T23:57:22.054Z,98353.69
